^^
Datos históricos de la estación: Murcia-Puente Tocinos
Diario Informe para Junio 9, 2019 Unidades:  Ingés    Métrico   Ambas
Diario Semanal Mensual Anual
  Máxima: Mínima: Promedio:
Temperatura: 66.4 °F 44.6 °F 55.4 °F
Punto de rocio: 41.9 °F 27.7 °F 34.2 °F
Humedad: 77.2% 27% 47%
Velocidad viento: 12.3mph 1.8mph 5.6mph
Racha viento: 25mph - -
Viento- - SO
Presión: 30.2 in 29.9 in -
Precipitación: 0 in    
 
 
Tabla de datos para Junio 9, 2019
Hora Temperatura Punto de rocio Presión Viento Velocidad viento Racha viento Humedad Intensidad lluvia(por hora) Nubes
00:04 48.7 °F 41.9 °F 30.2 in SSO 5.4 mph 12 mph 77.2% 0 in
00:09 48.7 °F 41.9 °F 30.2 in SSO 6.3 mph 12 mph 77% 0 in
00:14 48.7 °F 41.7 °F 30.2 in SSO 6.9 mph 12 mph 77% 0 in
00:19 48.6 °F 41.5 °F 30.2 in SSO 6.3 mph 12.7 mph 76.6% 0 in
00:24 48.6 °F 41.4 °F 30.2 in SSO 5.9 mph 13 mph 76% 0 in
00:29 48.4 °F 41.2 °F 30.2 in SSO 6.8 mph 12 mph 76% 0 in
00:34 48.2 °F 41 °F 30.2 in SSO 7.4 mph 11 mph 76% 0 in
00:39 48 °F 40.8 °F 30.2 in SSO 6.8 mph 11 mph 76% 0 in
00:44 47.8 °F 40.6 °F 30.2 in SSO 6.4 mph 12.7 mph 76% 0 in
00:49 47.8 °F 40.6 °F 30.2 in SSO 6.4 mph 13 mph 76% 0 in
00:54 47.8 °F 40.6 °F 30.1 in SSO 6.4 mph 10 mph 76% 0 in
00:59 47.7 °F 40.3 °F 30.1 in SSO 6.4 mph 10.4 mph 75.1% 0 in
01:04 47.8 °F 39.9 °F 30.1 in SSO 6.4 mph 10.4 mph 74% 0 in
01:09 47.7 °F 39.6 °F 30.1 in Sur 6.3 mph 10.4 mph 73.1% 0 in
01:14 47.5 °F 39.4 °F 30.1 in Sur 6.2 mph 10 mph 73% 0 in
01:19 47.1 °F 39.2 °F 30.1 in Sur 6.3 mph 12.7 mph 73.9% 0 in
01:24 46.9 °F 39.2 °F 30.1 in SSO 6.4 mph 13 mph 74% 0 in
01:29 46.8 °F 39 °F 30.1 in SO 6.1 mph 10.4 mph 74% 0 in
01:34 46.9 °F 38.7 °F 30.1 in SSO 5.9 mph 10 mph 73.3% 0 in
01:39 47.1 °F 38.7 °F 30.1 in SSO 5.2 mph 9.7 mph 72.2% 0 in
01:44 47.1 °F 38.5 °F 30.1 in SSO 4.7 mph 10 mph 71.8% 0 in
01:49 47.1 °F 38.1 °F 30.1 in SO 5.1 mph 10.4 mph 70.9% 0 in
01:54 47.1 °F 37.8 °F 30.1 in SO 5.4 mph 10 mph 69.7% 0 in
01:59 47.5 °F 37.6 °F 30.1 in SO 5.7 mph 10 mph 68.6% 0 in
02:04 47.5 °F 37.4 °F 30.1 in SSO 5.9 mph 10.4 mph 68% 0 in
02:09 47.3 °F 37.2 °F 30.1 in Sur 6.1 mph 11.5 mph 68% 0 in
02:14 47.1 °F 37 °F 30.1 in SSO 6.2 mph 12 mph 67.9% 0 in
02:19 46.9 °F 37 °F 30.1 in Sur 6.6 mph 12.7 mph 67.9% 0 in
02:24 46.8 °F 36.9 °F 30.1 in Sur 6.9 mph 13 mph 68.1% 0 in
02:29 46.6 °F 36.9 °F 30.1 in SSO 6.6 mph 10.4 mph 68.5% 0 in
02:34 46.6 °F 36.7 °F 30.1 in Sur 6.4 mph 10 mph 68.4% 0 in
02:39 46.2 °F 36.5 °F 30.1 in SSO 6.4 mph 11.5 mph 68.7% 0 in
02:44 46.2 °F 36.1 °F 30.1 in SSO 6.4 mph 12 mph 68% 0 in
02:49 46.4 °F 35.8 °F 30.1 in SSO 6.3 mph 12.7 mph 66.1% 0 in
02:54 46.9 °F 35.4 °F 30.1 in SSO 6.2 mph 13 mph 63.9% 0 in
02:59 47.1 °F 35.1 °F 30.1 in SO 6.3 mph 10 mph 62.6% 0 in
03:04 47.1 °F 35.2 °F 30.1 in OSO 6.4 mph 7 mph 63% 0 in
03:09 47.1 °F 35.4 °F 30.1 in OSO 3.6 mph 4 mph 63.5% 0 in
03:14 46.8 °F 35.4 °F 30.1 in Sur 1.8 mph 4.6 mph 64.4% 0 in
03:19 46 °F 35.2 °F 30.1 in ESE 1.8 mph 5.9 mph 65.9% 0 in
03:24 45.3 °F 35.2 °F 30.1 in SE 1.8 mph 6.2 mph 67.4% 0 in
03:29 45.1 °F 34.9 °F 30.1 in Sur 2.5 mph 6.2 mph 67.4% 0 in
03:34 45.1 °F 34.7 °F 30.1 in SSO 3.1 mph 6.2 mph 66.9% 0 in
03:39 45.3 °F 34.5 °F 30.1 in SSO 3.4 mph 6 mph 65.8% 0 in
03:44 45.7 °F 34.3 °F 30.1 in SSO 3.6 mph 5.8 mph 64.3% 0 in
03:49 46.2 °F 34 °F 30.1 in Sur 3.6 mph 7.4 mph 62.4% 0 in
03:54 46.6 °F 33.8 °F 30.1 in Sur 3.6 mph 9.2 mph 60.8% 0 in
03:59 46.8 °F 33.6 °F 30.1 in Sur 5 mph 9 mph 60% 0 in
04:04 46.4 °F 33.4 °F 30.1 in Sur 5.9 mph 8.5 mph 60.4% 0 in
04:09 46 °F 33.8 °F 30.1 in Sur 5.6 mph 9 mph 62.2% 0 in
04:14 45.3 °F 33.8 °F 30.1 in Sur 5.4 mph 9.2 mph 63.8% 0 in
04:19 45 °F 33.8 °F 30.1 in Sur 6 mph 9.2 mph 65.1% 0 in
04:24 44.6 °F 34 °F 30.1 in SSO 6.4 mph 9 mph 66% 0 in
04:29 44.6 °F 33.6 °F 30.1 in SO 6.3 mph 10.7 mph 65.3% 0 in
04:34 45.9 °F 32.2 °F 30.1 in OSO 6.2 mph 14 mph 58.6% 0 in
04:39 48.7 °F 31.1 °F 30.1 in SO 6.9 mph 15 mph 50.4% 0 in
04:44 50.7 °F 30.6 °F 30.1 in SO 7.4 mph 16.1 mph 45.6% 0 in
04:49 52 °F 30.2 °F 30.1 in SO 7.5 mph 16 mph 43.1% 0 in
04:54 52.3 °F 29.8 °F 30.1 in SO 7.6 mph 12 mph 42% 0 in
04:59 52 °F 29.8 °F 30.1 in SSO 7.1 mph 12 mph 42.6% 0 in
05:04 51.3 °F 30.2 °F 30.1 in Sur 6.9 mph 10 mph 44% 0 in
05:09 50.5 °F 30.2 °F 30.1 in SSO 6.6 mph 14.7 mph 45.6% 0 in
05:14 50.5 °F 30.4 °F 30.1 in SO 6.4 mph 15 mph 45.7% 0 in
05:19 51.1 °F 30.6 °F 30.1 in OSO 7.6 mph 16.1 mph 45% 0 in
05:24 51.3 °F 30.6 °F 30.1 in OSO 8.5 mph 16 mph 44.8% 0 in
05:29 51.1 °F 30.6 °F 30.1 in OSO 7.5 mph 13 mph 45.2% 0 in
05:34 50.5 °F 30.6 °F 30.1 in OSO 6.9 mph 11.4 mph 46.2% 0 in
05:39 50.4 °F 30.9 °F 30.1 in Oeste 6.6 mph 12 mph 47% 0 in
05:44 50.4 °F 30.9 °F 30.1 in Oeste 6.4 mph 12 mph 47.1% 0 in
05:49 50.4 °F 31.3 °F 30.1 in Oeste 5.3 mph 9 mph 48% 0 in
05:54 50.4 °F 31.3 °F 30.1 in OSO 4.7 mph 9.2 mph 47.7% 0 in
05:59 50.5 °F 31.5 °F 30.1 in OSO 4.3 mph 9 mph 47.6% 0 in
06:04 50.5 °F 31.6 °F 30.1 in OSO 4 mph 7 mph 48% 0 in
06:09 50.7 °F 31.6 °F 30.1 in Oeste 3.8 mph 6.2 mph 48% 0 in
06:14 50.7 °F 31.6 °F 30.1 in SSO 3.6 mph 7.4 mph 47.8% 0 in
06:19 50.7 °F 31.3 °F 30.1 in SSO 3.3 mph 7 mph 47.1% 0 in
06:24 50.4 °F 31.3 °F 30.1 in SO 3.1 mph 7 mph 48% 0 in
06:29 50 °F 31.5 °F 30.1 in SO 3.6 mph 7 mph 48.8% 0 in
06:34 50.2 °F 31.6 °F 30.1 in SSO 4 mph 6.9 mph 49% 0 in
06:39 50.4 °F 31.8 °F 30.1 in SO 3.5 mph 7 mph 49% 0 in
06:44 50.4 °F 31.8 °F 30.1 in SE 3.1 mph 6 mph 48.9% 0 in
06:49 50.2 °F 31.8 °F 30.1 in SE 3 mph 5.2 mph 49% 0 in
06:54 49.6 °F 31.6 °F 30.1 in SSE 2.9 mph 6.9 mph 49.8% 0 in
06:59 49.5 °F 31.6 °F 30.1 in Sur 3.4 mph 7 mph 50% 0 in
07:04 49.6 °F 31.8 °F 30.1 in Sur 3.6 mph 6.9 mph 50% 0 in
07:09 49.8 °F 31.8 °F 30.1 in SSO 3.6 mph 9.7 mph 50% 0 in
07:14 50 °F 32 °F 30.1 in Oeste 3.6 mph 10 mph 50% 0 in
07:19 50.5 °F 32.2 °F 30.1 in SO 4.3 mph 8.1 mph 49.2% 0 in
07:24 50.7 °F 32.2 °F 30.1 in SO 4.7 mph 11.5 mph 48.9% 0 in
07:29 51.3 °F 32.5 °F 30.1 in OSO 4.7 mph 12.7 mph 49% 0 in
07:34 51.3 °F 32.7 °F 30.1 in Oeste 4.7 mph 13 mph 49% 0 in
07:39 51.4 °F 32.9 °F 30.1 in OSO 4.5 mph 10 mph 49% 0 in
07:44 51.3 °F 32.7 °F 30.1 in OSO 4.3 mph 9.7 mph 49% 0 in
07:49 51.4 °F 32.9 °F 30.1 in OSO 4.8 mph 10 mph 49% 0 in
07:54 51.4 °F 32.9 °F 30.1 in Oeste 5.2 mph 9 mph 49% 0 in
07:59 51.3 °F 32.9 °F 30.1 in OSO 3.2 mph 5 mph 49.4% 0 in
08:04 51.3 °F 33.3 °F 30.1 in SSO 2 mph 5 mph 50% 0 in
08:09 51.1 °F 33.1 °F 30.1 in SSO 2.2 mph 5 mph 50% 0 in
08:14 51.1 °F 33.1 °F 30.1 in SSO 2.4 mph 4 mph 50% 0 in
08:19 50.9 °F 32.9 °F 30.1 in SO 2.2 mph 5.2 mph 50% 0 in
08:24 51.3 °F 32.9 °F 30.1 in Oeste 2 mph 9.2 mph 49.5% 0 in
08:29 51.6 °F 33.1 °F 30.1 in Oeste 3.4 mph 9.2 mph 49% 0 in
08:34 51.6 °F 33.1 °F 30.1 in OSO 4.3 mph 6 mph 49% 0 in
08:39 51.4 °F 33.1 °F 30.1 in SSO 3.6 mph 6.9 mph 49.4% 0 in
08:44 51.3 °F 33.3 °F 30.1 in SSO 3.1 mph 7 mph 50% 0 in
08:49 51.1 °F 33.1 °F 30.1 in SO 3.4 mph 6.9 mph 50% 0 in
08:54 51.3 °F 33.3 °F 30.1 in SO 3.6 mph 7 mph 50% 0 in
08:59 51.3 °F 33.4 °F 30.1 in SO 3.3 mph 6.2 mph 50.4% 0 in
09:04 51.3 °F 33.8 °F 30.1 in SO 3.1 mph 8.1 mph 51% 0 in
09:09 51.4 °F 33.8 °F 30.1 in SO 3.8 mph 8.5 mph 51% 0 in
09:14 51.4 °F 34.2 °F 30.1 in SSO 4.3 mph 9.7 mph 51.5% 0 in
09:19 51.8 °F 34.7 °F 30.1 in SO 4.2 mph 10 mph 52% 0 in
09:24 52.2 °F 34.7 °F 30.1 in SSO 4 mph 9.2 mph 51.4% 0 in
09:29 52.5 °F 34.7 °F 30.1 in Sur 4.8 mph 9.7 mph 50.8% 0 in
09:34 52.7 °F 34.7 °F 30.1 in SSO 5.4 mph 10 mph 50.2% 0 in
09:39 52.7 °F 34.9 °F 30.1 in Sur 5.3 mph 8 mph 50.5% 0 in
09:44 52.5 °F 35.2 °F 30.1 in SSO 5.2 mph 8.7 mph 51.6% 0 in
09:49 52.3 °F 35.1 °F 30.1 in SSO 4.7 mph 10.7 mph 51.9% 0 in
09:54 52.2 °F 35.4 °F 30.1 in Sur 4.3 mph 11 mph 52.9% 0 in
09:59 52.2 °F 35.4 °F 30.1 in Sur 5.7 mph 10 mph 53% 0 in
10:04 52.3 °F 35.8 °F 30.1 in Sur 6.4 mph 9.7 mph 53% 0 in
10:09 52.9 °F 36 °F 30.1 in Sur 6.3 mph 10.2 mph 52.6% 0 in
10:14 53.1 °F 36 °F 30.1 in Sur 6.2 mph 10.4 mph 52% 0 in
10:19 53.2 °F 36.1 °F 30.1 in Sur 6.2 mph 10 mph 52% 0 in
10:24 53.6 °F 36.3 °F 30.1 in SSO 6.2 mph 10 mph 51.9% 0 in
10:29 54 °F 36.5 °F 30.1 in SSO 6.3 mph 10 mph 51.7% 0 in
10:34 54.1 °F 36.3 °F 30.1 in SSO 6.4 mph 9 mph 51% 0 in
10:39 54.3 °F 36.7 °F 30.1 in SSO 5.7 mph 9 mph 51% 0 in
10:44 54.9 °F 36.9 °F 30.1 in SSO 5.2 mph 8.1 mph 50.9% 0 in
10:49 55 °F 36.9 °F 30.1 in SSO 4.7 mph 10 mph 50.2% 0 in
10:54 55.2 °F 36.9 °F 30.1 in SSO 4.3 mph 10.4 mph 50% 0 in
10:59 55.4 °F 36.9 °F 30.1 in SO 5.3 mph 10 mph 49.7% 0 in
11:04 55.6 °F 36.9 °F 30.1 in SO 5.9 mph 9 mph 49.3% 0 in
11:09 55.9 °F 36.9 °F 30.1 in OSO 5.2 mph 9.2 mph 48.7% 0 in
11:14 56.1 °F 36.1 °F 30.1 in Oeste 4.7 mph 11.5 mph 46.9% 0 in
11:19 56.7 °F 36.1 °F 30.1 in Oeste 5.7 mph 12 mph 46.1% 0 in
11:24 56.8 °F 35.8 °F 30.1 in OSO 6.4 mph 13.8 mph 45.1% 0 in
11:29 56.8 °F 36 °F 30.1 in OSO 7.1 mph 14 mph 45.3% 0 in
11:34 57 °F 36 °F 30.1 in OSO 7.6 mph 14 mph 45.4% 0 in
11:39 57 °F 36.1 °F 30.1 in SO 7.6 mph 13 mph 45.3% 0 in
11:44 57 °F 35.8 °F 30.1 in SO 7.6 mph 13.7 mph 44.8% 0 in
11:49 57.4 °F 35.6 °F 30.1 in OSO 6.9 mph 14 mph 44% 0 in
11:54 57.4 °F 35.2 °F 30.1 in OSO 6.4 mph 14 mph 43.4% 0 in
11:59 57.6 °F 35.4 °F 30.1 in Oeste 7.1 mph 13 mph 43.2% 0 in
12:04 57.7 °F 35.2 °F 30.1 in Oeste 7.4 mph 16.3 mph 42.8% 0 in
12:09 57.7 °F 35.1 °F 30.1 in Oeste 7.8 mph 16.3 mph 42.5% 0 in
12:14 57.7 °F 34.9 °F 30.1 in Oeste 8.1 mph 16 mph 42% 0 in
12:19 58.1 °F 34.9 °F 30.1 in ONO 8.4 mph 19 mph 41.7% 0 in
12:24 58.3 °F 34.7 °F 30.1 in Oeste 8.7 mph 19 mph 40.9% 0 in
12:29 58.5 °F 34.2 °F 30.1 in ONO 9.9 mph 17.3 mph 40.1% 0 in
12:34 58.5 °F 34.2 °F 30.1 in ONO 10.7 mph 17 mph 40% 0 in
12:39 58.6 °F 34.3 °F 30.1 in Oeste 10.1 mph 16 mph 40% 0 in
12:44 58.8 °F 34.5 °F 30.1 in Oeste 9.7 mph 12 mph 39.8% 0 in
12:49 59.2 °F 34.2 °F 30.1 in ONO 7.7 mph 13 mph 39.1% 0 in
12:54 59.2 °F 34.2 °F 30 in Oeste 6.4 mph 13 mph 39% 0 in
12:59 59.5 °F 34.2 °F 30 in Oeste 6.7 mph 12 mph 38.5% 0 in
13:04 59.7 °F 34 °F 30 in Oeste 6.9 mph 14 mph 37.9% 0 in
13:09 59.9 °F 33.3 °F 30 in Oeste 6.9 mph 16.8 mph 36.6% 0 in
13:14 59.9 °F 32.9 °F 30 in Oeste 6.9 mph 17.8 mph 36% 0 in
13:19 60.3 °F 33.8 °F 30 in Oeste 8 mph 18 mph 36.8% 0 in
13:24 60.6 °F 33.3 °F 30 in Oeste 8.7 mph 13 mph 35.8% 0 in
13:29 60.6 °F 32.9 °F 30 in Oeste 7.6 mph 13 mph 35.2% 0 in
13:34 61 °F 34.2 °F 30 in OSO 6.9 mph 17.3 mph 36.5% 0 in
13:39 61.2 °F 34.7 °F 30 in SO 6.6 mph 17 mph 37% 0 in
13:44 61.2 °F 34.7 °F 30 in SO 6.4 mph 11 mph 36.9% 0 in
13:49 61.3 °F 34.3 °F 30 in SO 5.7 mph 11 mph 36.5% 0 in
13:54 61.3 °F 34.7 °F 30 in SO 5.2 mph 10.4 mph 37% 0 in
13:59 61.3 °F 34.3 °F 30 in SO 5.3 mph 10.7 mph 36.2% 0 in
14:04 61.3 °F 34 °F 30 in OSO 5.4 mph 13 mph 35.7% 0 in
14:09 61.3 °F 33.3 °F 30 in OSO 5.9 mph 13 mph 34.8% 0 in
14:14 61.7 °F 33.1 °F 30 in OSO 6.2 mph 12 mph 34.1% 0 in
14:19 61.9 °F 33.3 °F 30 in Oeste 5.7 mph 9 mph 34% 0 in
14:24 62.1 °F 32.7 °F 30 in Oeste 5.4 mph 9.7 mph 33.2% 0 in
14:29 62.2 °F 32.7 °F 30 in Oeste 5.3 mph 10 mph 33% 0 in
14:34 62.4 °F 33.1 °F 30 in Oeste 5.2 mph 13.8 mph 33.1% 0 in
14:39 63 °F 32.9 °F 30 in ONO 4.9 mph 14 mph 32.4% 0 in
14:44 63.1 °F 32.4 °F 30 in ONO 4.7 mph 16.1 mph 31.3% 0 in
14:49 63.3 °F 32 °F 30 in ONO 6 mph 16 mph 31% 0 in
14:54 63.5 °F 32 °F 30 in ONO 6.9 mph 12 mph 30.6% 0 in
14:59 63.9 °F 32 °F 30 in Oeste 6.3 mph 11.5 mph 30.2% 0 in
15:04 64 °F 32 °F 30 in Oeste 5.9 mph 12 mph 30% 0 in
15:09 64.4 °F 32.2 °F 30 in Oeste 5.9 mph 10.7 mph 30% 0 in
15:14 64.8 °F 32.5 °F 30 in Oeste 5.9 mph 11 mph 29.9% 0 in
15:19 64.9 °F 32 °F 30 in Oeste 4.9 mph 10.7 mph 29.1% 0 in
15:24 65.1 °F 32 °F 29.9 in OSO 4.3 mph 11 mph 29% 0 in
15:29 65.1 °F 31.6 °F 29.9 in SO 5 mph 10.4 mph 28.5% 0 in
15:34 65.5 °F 31.5 °F 29.9 in OSO 5.4 mph 11.2 mph 28% 0 in
15:39 65.7 °F 31.6 °F 29.9 in OSO 6 mph 12.3 mph 28% 0 in
15:44 65.8 °F 31.6 °F 29.9 in OSO 6.4 mph 15.2 mph 28% 0 in
15:49 65.8 °F 32.2 °F 29.9 in Oeste 6.4 mph 15 mph 28.4% 0 in
15:54 65.8 °F 31.8 °F 29.9 in Oeste 6.4 mph 14 mph 28% 0 in
15:59 65.8 °F 31.6 °F 29.9 in OSO 7.1 mph 13 mph 27.8% 0 in
16:04 66 °F 31.6 °F 29.9 in OSO 7.4 mph 13 mph 27.6% 0 in
16:09 66 °F 31.1 °F 29.9 in OSO 6.8 mph 12.3 mph 27% 0 in
16:14 66 °F 31.1 °F 29.9 in OSO 6.4 mph 13 mph 27% 0 in
16:19 66 °F 31.1 °F 29.9 in OSO 6.7 mph 13 mph 27% 0 in
16:24 66 °F 31.1 °F 29.9 in SO 6.9 mph 13 mph 27% 0 in
16:29 66.4 °F 31.5 °F 29.9 in OSO 6.3 mph 13.8 mph 27.1% 0 in
16:34 66.2 °F 31.3 °F 29.9 in OSO 5.9 mph 14 mph 27% 0 in
16:39 66.2 °F 31.5 °F 29.9 in SO 6.9 mph 13 mph 27.4% 0 in
16:44 66.2 °F 32.2 °F 29.9 in SO 7.6 mph 10 mph 28% 0 in
16:49 66.4 °F 32.2 °F 29.9 in SO 6.6 mph 10.4 mph 28% 0 in
16:54 66 °F 32.7 °F 29.9 in SSO 5.9 mph 10 mph 28.9% 0 in
16:59 65.8 °F 32.9 °F 29.9 in SO 5.9 mph 10 mph 29.2% 0 in
17:04 65.7 °F 32.5 °F 29.9 in OSO 5.9 mph 10.4 mph 29% 0 in
17:09 65.8 °F 32.4 °F 29.9 in OSO 5.6 mph 10 mph 28.6% 0 in
17:14 66 °F 32.7 °F 29.9 in SO 5.4 mph 8.1 mph 29% 0 in
17:19 65.8 °F 32.7 °F 29.9 in SO 5 mph 8.1 mph 29% 0 in
17:24 65.7 °F 33.3 °F 29.9 in SO 4.7 mph 8 mph 29.8% 0 in
17:29 65.5 °F 33.1 °F 29.9 in SO 4.7 mph 11.5 mph 29.9% 0 in
17:34 65.1 °F 32.9 °F 29.9 in SO 4.7 mph 12 mph 30% 0 in
17:39 64.9 °F 32.7 °F 29.9 in SO 5.7 mph 11.5 mph 30% 0 in
17:44 64.8 °F 32.4 °F 29.9 in SO 6.4 mph 12 mph 29.8% 0 in
17:49 64.8 °F 32.5 °F 29.9 in SSO 6.3 mph 12 mph 30% 0 in
17:54 64.6 °F 32.2 °F 29.9 in SO 6.2 mph 11.8 mph 29.8% 0 in
17:59 64.6 °F 32.4 °F 29.9 in Oeste 6 mph 15 mph 29.9% 0 in
18:04 64.4 °F 32.4 °F 29.9 in Oeste 5.9 mph 15 mph 30.1% 0 in
18:09 63.9 °F 32.7 °F 29.9 in Oeste 5 mph 8.1 mph 31.1% 0 in
18:14 63.1 °F 32.7 °F 29.9 in OSO 4.3 mph 9.2 mph 32% 0 in
18:19 62.8 °F 32.5 °F 29.9 in OSO 4.8 mph 9.7 mph 32.1% 0 in
18:24 62.4 °F 32.9 °F 29.9 in SO 5.2 mph 10 mph 33% 0 in
18:29 62.2 °F 32.7 °F 29.9 in SO 5.3 mph 9 mph 33% 0 in
18:34 62.1 °F 32.7 °F 29.9 in SSO 5.4 mph 11.2 mph 33.2% 0 in
18:39 61.7 °F 33.3 °F 29.9 in SSO 5.9 mph 12 mph 34.3% 0 in
18:44 61.3 °F 34.2 °F 29.9 in SO 6.2 mph 12 mph 36% 0 in
18:49 60.6 °F 35.1 °F 29.9 in SO 6.6 mph 12.7 mph 38.3% 0 in
18:54 60.1 °F 35.8 °F 29.9 in SO 6.9 mph 13 mph 40.1% 0 in
18:59 59.5 °F 36.1 °F 29.9 in SO 6.6 mph 12 mph 41.6% 0 in
19:04 59.4 °F 36.1 °F 29.9 in SO 6.4 mph 14.5 mph 41.8% 0 in
19:09 59.9 °F 33.8 °F 29.9 in OSO 7 mph 17.3 mph 37.5% 0 in
19:14 60.6 °F 34.7 °F 29.9 in SO 7.4 mph 17 mph 37.7% 0 in
19:19 60.1 °F 36.3 °F 29.9 in SSO 6.8 mph 10 mph 41.3% 0 in
19:24 59.2 °F 36.1 °F 29.9 in SO 6.4 mph 10.4 mph 42.3% 0 in
19:29 58.8 °F 36.5 °F 29.9 in SO 6.1 mph 10.4 mph 43.1% 0 in
19:34 58.5 °F 37.2 °F 29.9 in SO 5.9 mph 10.4 mph 44.9% 0 in
19:39 58.3 °F 37.2 °F 29.9 in OSO 5.5 mph 10 mph 45.3% 0 in
19:44 58.1 °F 37.8 °F 29.9 in SO 5.2 mph 8 mph 46.4% 0 in
19:49 57.9 °F 38.3 °F 29.9 in SO 4.2 mph 7 mph 47.9% 0 in
19:54 57.7 °F 38.8 °F 29.9 in OSO 3.6 mph 6 mph 49.2% 0 in
19:59 57.6 °F 39.2 °F 29.9 in SO 2.8 mph 5 mph 50.6% 0 in
20:04 57.4 °F 39 °F 29.9 in SSO 2.4 mph 8.1 mph 50.1% 0 in
20:09 57.2 °F 40.1 °F 29.9 in SSE 2.7 mph 8 mph 52.9% 0 in
20:14 56.7 °F 40.5 °F 29.9 in Sur 2.9 mph 6.4 mph 54.8% 0 in
20:19 55.8 °F 41.2 °F 29.9 in Sur 3 mph 8.1 mph 57.8% 0 in
20:24 55 °F 41.4 °F 29.9 in Sur 3.1 mph 8.1 mph 59.9% 0 in
20:29 54.5 °F 41.2 °F 29.9 in SSO 4.5 mph 10.4 mph 61% 0 in
20:34 54.3 °F 40.8 °F 29.9 in SO 5.4 mph 10 mph 60.3% 0 in
20:39 54.5 °F 40.3 °F 29.9 in SSO 5.3 mph 10.2 mph 59% 0 in
20:44 54.9 °F 39.4 °F 29.9 in SSO 5.2 mph 10.4 mph 55.8% 0 in
20:49 55.2 °F 38.7 °F 29.9 in SSO 5.6 mph 10 mph 53.7% 0 in
20:54 55.6 °F 38.1 °F 29.9 in SSE 5.9 mph 9 mph 51.9% 0 in
20:59 55.8 °F 37 °F 29.9 in SE 5.5 mph 10 mph 49.3% 0 in
21:04 56.1 °F 35.8 °F 29.9 in SSE 5.2 mph 11.5 mph 46.3% 0 in
21:09 56.7 °F 34.5 °F 29.9 in Sur 6.5 mph 12 mph 43.2% 0 in
21:14 57.4 °F 33.8 °F 29.9 in SSE 7.4 mph 10.4 mph 40.9% 0 in
21:19 57.9 °F 32.7 °F 29.9 in SSE 7.1 mph 11.5 mph 38.3% 0 in
21:24 58.5 °F 32.4 °F 29.9 in SE 6.9 mph 12 mph 37% 0 in
21:29 58.6 °F 31.8 °F 29.9 in SE 6.5 mph 10.4 mph 36.2% 0 in
21:34 58.6 °F 31.6 °F 29.9 in SE 6.2 mph 10 mph 35.8% 0 in
21:39 58.8 °F 31.3 °F 29.9 in SSE 4.7 mph 7 mph 35% 0 in
21:44 58.8 °F 31.3 °F 29.9 in OSO 3.6 mph 5.9 mph 35% 0 in
21:49 58.8 °F 31.1 °F 29.9 in SO 3.2 mph 6 mph 34.9% 0 in
21:54 58.8 °F 31.1 °F 29.9 in SO 2.9 mph 6.2 mph 34.9% 0 in
21:59 58.8 °F 31.1 °F 29.9 in SO 3.4 mph 6.9 mph 34.9% 0 in
22:04 58.6 °F 30.9 °F 29.9 in SO 3.6 mph 7 mph 35% 0 in
22:09 58.5 °F 31.3 °F 29.9 in Sur 3.9 mph 6.9 mph 35.6% 0 in
22:14 57.9 °F 31.1 °F 29.9 in SE 4 mph 8.1 mph 36% 0 in
22:19 57.6 °F 30.7 °F 29.9 in SE 4.4 mph 8.1 mph 36.1% 0 in
22:24 57.4 °F 30.9 °F 29.9 in SE 4.7 mph 8 mph 36.4% 0 in
22:29 57.2 °F 30.6 °F 29.9 in SO 4.3 mph 7 mph 36.2% 0 in
22:34 57.6 °F 30.7 °F 29.9 in Oeste 4 mph 10.4 mph 36% 0 in
22:39 57.6 °F 30.7 °F 29.9 in Oeste 4.8 mph 10 mph 36% 0 in
22:44 57.2 °F 30.6 °F 29.9 in SSE 5.4 mph 10 mph 36.4% 0 in
22:49 56.8 °F 30.7 °F 29.9 in SSE 4.4 mph 8.1 mph 36.9% 0 in
22:54 56.3 °F 30.7 °F 29.9 in SO 3.6 mph 8.1 mph 37.7% 0 in
22:59 55.9 °F 30.7 °F 29.9 in OSO 4.3 mph 8.1 mph 38% 0 in
23:04 55.9 °F 30.4 °F 29.9 in Oeste 4.7 mph 7.4 mph 37.7% 0 in
23:09 56.1 °F 30.2 °F 29.9 in ONO 3.8 mph 7.6 mph 37% 0 in
23:14 56.5 °F 30.4 °F 29.9 in Oeste 3.1 mph 10.4 mph 36.9% 0 in
23:19 56.8 °F 30 °F 29.9 in ONO 4.7 mph 16.1 mph 35.9% 0 in
23:24 57.4 °F 29.7 °F 29.9 in ONO 5.9 mph 17.5 mph 34.6% 0 in
23:29 57.9 °F 29.3 °F 29.9 in ONO 8.4 mph 20.7 mph 33.4% 0 in
23:34 57.9 °F 29.1 °F 29.9 in ONO 10.2 mph 21 mph 33% 0 in
23:39 57.9 °F 28.9 °F 29.9 in ONO 9.6 mph 20.4 mph 33% 0 in
23:44 57.7 °F 28.4 °F 29.9 in ONO 9.2 mph 24.6 mph 32.4% 0 in
23:49 57.7 °F 28 °F 29.9 in ONO 11.1 mph 25 mph 32% 0 in
23:54 57.6 °F 27.9 °F 29.9 in ONO 12.3 mph 17.3 mph 32% 0 in
23:59 57.4 °F 27.7 °F 29.9 in ONO 10.6 mph 17 mph 32% 0 in
Murcia-Puente Tocinos, España
Compliments of Weather Underground - 2.75 mb

La estación de MeteoMurcia.com, publica sus datos en los siguientes proyectos:

Weather Underground PWS IMURCIAP2 Meteoclimatic www.awekas.at

W3Counter
Web Analytics